Hlavní strana
METAR-TAF:

METAR-TAF

Letiště :

Letiště Alicante-Elche

Alicante, Španělsko

zeměpisná šířka: 38-17N, zeměpisná délka: 000-33W, výška: 43 m

Aktuální stav počasí

Zpráva byla vytvořena před 27 minutami, v 22:00 UTC
Severní vítr 6 kt
Teplota 13°C
Vlhkost vzduchu 88%
Tlak 1020 hPa
Viditelnost 10 km a více
Skoro jasno ve výšce 1800 ft

METAR: LEAL 042200Z 01006KT 9999 FEW018 13/11 Q1020 NOSIG

Čas: 00:27 (22:27 UTC)

Předpověď počasí

Zpráva byla vytvořena před 5 hodinami a 27 minutami, v 17:00 UTC
Předpověď platná od 04 v 18 UTC do 05 v 18 UTC
Východní vítr 10 kt
Viditelnost 10 km a více
Polojasno ve výšce 2000 ft
Změna
od 04 v 18 UTC do 04 v 20 UTC
Severní vítr 3 kt
Změna
od 05 v 08 UTC do 05 v 10 UTC
Východní vítr 10 kt

TAF: LEAL 041700Z 0418/0518 09010KT 9999 SCT020 TX18/0512Z TN11/0506Z BECMG 0418/0420 01003KT BECMG 0508/0510 09010KT

Stav a předpovědi počasí z více než 4 000 letišť (zprávy METAR a TAF).

Červené a žluté tečky na mapě představují dostupné meteorologické stanice.

Když kurzor umístíte na tečku, zobrazí se název stanice.

Pak kliknutím zobrazíte stav a předpověď počasí.

Chcete-li změnit mapu, kliknutím na zelené tlačítko se znaménkem +mapu přiblížíte, kliknutím na zelené tlačítko se znaménkem – mapu oddálíte a kliknutím na zelené šipky přejdete na sousední mapy.


METAR-TAF: